Time;durP1;ratioP1;P1;durP2;ratioP2;P2;SDS_P1;SDS_P2;PMS_P1;PMS_P2;Temp;Humidity;BMP_temperature;BMP_pressure;BME280_temperature;BME280_humidity;BME280_pressure;Samples;Min_cycle;Max_cycle;Signal;HPM_P1;HPM_P2
2021/08/20 00:00:17;;;;;;;7.22;3.55;;;16.50;96.50;;;;;;4984804;28;20033;-83
2021/08/20 00:02:42;;;;;;;6.80;4.43;;;16.50;96.80;;;;;;4988052;28;20304;-83
2021/08/20 00:05:08;;;;;;;6.43;4.38;;;16.60;96.70;;;;;;4986772;28;20137;-82
2021/08/20 00:07:34;;;;;;;6.07;3.88;;;16.50;96.60;;;;;;4987237;28;20081;-83
2021/08/20 00:09:59;;;;;;;5.93;3.97;;;16.50;96.70;;;;;;4997460;28;20034;-83
2021/08/20 00:12:26;;;;;;;5.20;4.70;;;16.60;96.70;;;;;;4977961;28;20029;-83
2021/08/20 00:14:52;;;;;;;4.78;3.83;;;16.50;96.90;;;;;;4988089;28;20117;-81
2021/08/20 00:17:17;;;;;;;6.65;3.67;;;16.50;96.70;;;;;;4986024;28;20120;-83
2021/08/20 00:19:43;;;;;;;5.72;4.20;;;16.50;96.90;;;;;;5003131;28;20310;-84
2021/08/20 00:22:09;;;;;;;9.65;3.80;;;16.50;96.90;;;;;;5002657;28;20096;-81
2021/08/20 00:24:35;;;;;;;6.55;3.90;;;16.50;96.80;;;;;;5001695;28;20140;-81
2021/08/20 00:27:01;;;;;;;4.88;3.95;;;16.50;97.10;;;;;;4976847;28;20034;-83
2021/08/20 00:29:26;;;;;;;4.78;3.90;;;16.50;97.00;;;;;;4988421;28;20042;-82
2021/08/20 00:31:52;;;;;;;5.82;3.63;;;16.50;97.00;;;;;;4988139;28;20501;-83
2021/08/20 00:34:17;;;;;;;6.38;3.75;;;16.50;97.00;;;;;;4987253;28;20030;-83
2021/08/20 00:36:43;;;;;;;7.10;4.22;;;16.50;97.00;;;;;;5004171;28;20033;-84
2021/08/20 00:39:08;;;;;;;5.55;3.85;;;16.40;97.20;;;;;;4976204;28;20037;-82
2021/08/20 00:41:34;;;;;;;7.20;4.82;;;16.40;97.10;;;;;;4988034;28;20030;-83
2021/08/20 00:44:00;;;;;;;7.68;4.82;;;16.40;97.60;;;;;;4983664;28;20140;-82
2021/08/20 00:46:25;;;;;;;4.10;3.33;;;16.30;97.60;;;;;;4969108;28;20050;-83
2021/08/20 00:48:51;;;;;;;7.00;4.32;;;16.30;97.40;;;;;;4997436;28;20468;-82
2021/08/20 00:51:20;;;;;;;5.78;3.80;;;16.30;97.70;;;;;;4975576;28;20131;-82
2021/08/20 00:53:46;;;;;;;5.38;3.97;;;16.40;97.50;;;;;;5016238;28;20169;-83
2021/08/20 00:56:13;;;;;;;4.25;3.80;;;16.30;97.40;;;;;;4980423;28;20039;-83
2021/08/20 00:58:38;;;;;;;4.57;3.75;;;16.20;97.30;;;;;;5001476;28;20030;-83
2021/08/20 01:01:04;;;;;;;6.20;3.80;;;16.20;97.30;;;;;;4983474;28;20043;-83
2021/08/20 01:03:30;;;;;;;5.60;3.72;;;16.10;97.50;;;;;;4970008;28;20034;-82
2021/08/20 01:05:55;;;;;;;5.10;3.38;;;16.10;97.40;;;;;;5018331;28;20034;-81
2021/08/20 01:08:22;;;;;;;4.40;3.60;;;16.10;97.40;;;;;;4985949;28;20064;-83
2021/08/20 01:10:51;;;;;;;5.28;3.60;;;16.10;97.40;;;;;;5001412;28;20115;-82
2021/08/20 01:13:19;;;;;;;6.43;3.30;;;16.10;97.50;;;;;;4970851;28;20382;-82
2021/08/20 01:15:45;;;;;;;4.97;3.47;;;16.20;97.80;;;;;;4986744;28;20026;-82
2021/08/20 01:18:24;;;;;;;3.83;3.08;;;16.10;97.50;;;;;;5003199;28;20165;-82
2021/08/20 01:20:50;;;;;;;5.22;3.60;;;16.10;97.40;;;;;;4973833;28;20034;-83
2021/08/20 01:23:17;;;;;;;4.95;3.50;;;16.20;98.00;;;;;;4989848;28;20773;-83
2021/08/20 01:25:46;;;;;;;5.55;3.60;;;16.20;97.60;;;;;;5012854;28;20022;-83
2021/08/20 01:28:12;;;;;;;6.80;3.85;;;16.30;97.70;;;;;;4988828;28;20069;-82
2021/08/20 01:30:37;;;;;;;7.07;4.05;;;16.20;97.70;;;;;;4974101;28;20054;-83
2021/08/20 01:33:03;;;;;;;6.00;4.60;;;16.10;97.70;;;;;;4975010;28;20174;-82
2021/08/20 01:35:29;;;;;;;5.03;3.60;;;16.20;97.90;;;;;;4991297;28;20551;-82
2021/08/20 01:37:54;;;;;;;4.72;3.42;;;16.10;97.60;;;;;;4981058;28;20030;-80
2021/08/20 01:40:20;;;;;;;4.25;3.33;;;16.00;97.70;;;;;;4982063;28;20026;-82
2021/08/20 01:42:45;;;;;;;6.85;3.80;;;15.90;97.80;;;;;;4981432;28;20030;-83
2021/08/20 01:45:11;;;;;;;7.32;3.47;;;15.80;97.70;;;;;;5005624;28;20034;-82
2021/08/20 01:47:37;;;;;;;6.53;4.20;;;15.80;97.70;;;;;;5022357;28;20040;-81
2021/08/20 01:50:04;;;;;;;4.50;3.35;;;15.80;97.80;;;;;;4984486;28;20034;-82
2021/08/20 01:52:29;;;;;;;6.28;3.58;;;15.80;97.80;;;;;;4989342;28;20116;-81
2021/08/20 01:54:55;;;;;;;6.70;3.80;;;15.70;97.90;;;;;;4987282;28;20176;-81
2021/08/20 01:57:20;;;;;;;7.95;3.95;;;15.90;97.90;;;;;;4987255;28;20038;-81
2021/08/20 01:59:46;;;;;;;4.95;3.50;;;15.90;97.50;;;;;;5008618;28;20363;-82
2021/08/20 02:02:11;;;;;;;3.72;3.15;;;15.70;97.90;;;;;;4990896;28;20037;-81
2021/08/20 02:04:37;;;;;;;5.75;3.97;;;15.70;97.60;;;;;;5021416;28;20073;-81
2021/08/20 02:07:03;;;;;;;7.10;3.85;;;15.70;98.10;;;;;;4970600;28;20142;-81
2021/08/20 02:09:28;;;;;;;7.30;4.22;;;15.70;97.90;;;;;;4990161;28;20091;-81
2021/08/20 02:11:54;;;;;;;4.28;2.85;;;15.60;97.40;;;;;;4973972;28;20034;-81
2021/08/20 02:14:19;;;;;;;7.00;4.15;;;15.50;98.00;;;;;;4967838;28;20034;-80
2021/08/20 02:16:45;;;;;;;5.82;3.13;;;15.50;98.20;;;;;;4989262;28;20034;-81
2021/08/20 02:19:10;;;;;;;8.50;3.53;;;15.50;98.10;;;;;;4987270;28;20030;-81
2021/08/20 02:21:36;;;;;;;6.35;4.63;;;15.50;97.70;;;;;;5003285;28;20148;-82
2021/08/20 02:24:01;;;;;;;6.20;4.07;;;15.60;98.10;;;;;;5017743;28;20030;-82
2021/08/20 02:26:27;;;;;;;4.35;3.40;;;15.60;97.90;;;;;;4971929;28;20041;-82
2021/08/20 02:28:52;;;;;;;5.18;4.10;;;15.50;98.20;;;;;;4986102;28;20057;-80
2021/08/20 02:31:18;;;;;;;5.50;3.70;;;15.50;98.10;;;;;;4985820;28;20112;-80
2021/08/20 02:33:45;;;;;;;4.18;3.72;;;15.60;98.00;;;;;;5022175;28;20034;-82
2021/08/20 02:36:11;;;;;;;6.22;4.75;;;15.50;98.10;;;;;;4989978;28;20440;-82
2021/08/20 02:38:38;;;;;;;7.05;5.05;;;15.50;98.10;;;;;;4972217;28;20030;-82
2021/08/20 02:41:03;;;;;;;7.15;4.00;;;15.50;98.30;;;;;;4988357;28;20055;-83
2021/08/20 02:43:29;;;;;;;4.30;3.60;;;15.50;98.20;;;;;;4977666;28;20031;-82
2021/08/20 02:45:56;;;;;;;4.47;3.90;;;15.60;98.10;;;;;;4973495;28;20029;-82
2021/08/20 02:48:22;;;;;;;7.45;4.57;;;15.50;98.00;;;;;;4989545;28;20057;-83
2021/08/20 02:50:47;;;;;;;9.85;4.55;;;15.50;98.10;;;;;;5004187;28;20541;-83
2021/08/20 02:53:13;;;;;;;8.88;3.80;;;15.50;98.40;;;;;;4989684;28;20062;-82
2021/08/20 02:55:38;;;;;;;6.82;4.85;;;15.50;98.10;;;;;;4973731;28;20433;-82
2021/08/20 02:58:05;;;;;;;6.47;5.03;;;15.50;98.10;;;;;;4968971;28;20636;-83
2021/08/20 03:00:30;;;;;;;6.07;4.70;;;15.50;98.00;;;;;;5005802;28;20022;-82
2021/08/20 03:02:56;;;;;;;5.72;4.18;;;15.40;97.90;;;;;;4989451;28;20253;-82
2021/08/20 03:05:21;;;;;;;6.70;5.05;;;15.40;97.80;;;;;;4976925;28;20093;-83
2021/08/20 03:07:47;;;;;;;4.65;4.13;;;15.50;97.90;;;;;;4988730;28;20591;-82
2021/08/20 03:10:13;;;;;;;7.32;4.57;;;15.30;97.90;;;;;;4989151;28;20113;-83
2021/08/20 03:12:39;;;;;;;5.13;3.75;;;15.40;98.00;;;;;;4978691;28;20308;-83
2021/08/20 03:15:05;;;;;;;8.73;4.00;;;15.50;97.90;;;;;;4968667;28;20502;-82
2021/08/20 03:17:30;;;;;;;8.13;5.65;;;15.60;98.10;;;;;;5001361;28;20045;-82
2021/08/20 03:19:56;;;;;;;8.77;6.30;;;15.50;98.00;;;;;;5002260;28;20037;-83
2021/08/20 03:22:21;;;;;;;9.75;6.18;;;15.50;97.90;;;;;;4984677;28;20038;-82
2021/08/20 03:24:47;;;;;;;10.07;6.22;;;15.40;97.90;;;;;;5016691;28;20041;-81
2021/08/20 03:27:12;;;;;;;6.38;4.70;;;15.30;98.30;;;;;;4985633;28;20041;-82
2021/08/20 03:29:38;;;;;;;7.18;5.05;;;15.20;98.10;;;;;;4988025;28;20057;-82
2021/08/20 03:32:04;;;;;;;9.13;5.90;;;15.20;98.10;;;;;;4986005;28;20165;-81
2021/08/20 03:34:29;;;;;;;13.35;7.35;;;15.20;98.00;;;;;;4988979;28;20057;-83
2021/08/20 03:36:56;;;;;;;8.43;5.80;;;15.20;98.20;;;;;;4988967;28;20204;-82
2021/08/20 03:39:21;;;;;;;8.10;6.82;;;15.10;98.30;;;;;;5002943;28;20030;-82
2021/08/20 03:41:48;;;;;;;7.85;6.05;;;15.10;98.90;;;;;;4988609;28;20037;-80
2021/08/20 03:44:14;;;;;;;5.72;4.85;;;15.10;98.40;;;;;;5004581;28;20455;-83
2021/08/20 03:46:39;;;;;;;10.05;6.30;;;15.10;98.30;;;;;;4978977;28;20105;-83
2021/08/20 03:49:05;;;;;;;15.80;8.48;;;15.10;98.50;;;;;;4984876;28;20046;-82
2021/08/20 03:51:30;;;;;;;9.60;5.43;;;15.10;98.50;;;;;;4988953;28;20033;-82
2021/08/20 03:53:56;;;;;;;6.93;5.60;;;15.20;98.40;;;;;;4988162;28;20026;-82
2021/08/20 03:56:21;;;;;;;8.02;5.97;;;15.20;98.60;;;;;;4976806;28;20529;-82
2021/08/20 03:58:47;;;;;;;8.60;6.55;;;15.20;98.70;;;;;;4989206;28;20052;-83
2021/08/20 04:01:12;;;;;;;8.70;6.80;;;15.20;98.70;;;;;;4984514;28;20110;-84
2021/08/20 04:03:38;;;;;;;12.15;7.97;;;15.20;98.80;;;;;;4970730;28;20182;-82
2021/08/20 04:06:07;;;;;;;13.52;9.65;;;15.20;98.90;;;;;;4986494;28;20122;-82
2021/08/20 04:08:32;;;;;;;11.18;7.75;;;15.20;98.80;;;;;;5019048;28;20034;-82
2021/08/20 04:10:58;;;;;;;10.35;8.05;;;15.20;98.70;;;;;;4974738;28;20097;-83
2021/08/20 04:13:23;;;;;;;14.18;9.18;;;15.10;98.60;;;;;;4987953;28;20112;-83
2021/08/20 04:15:49;;;;;;;13.85;9.07;;;15.10;98.60;;;;;;5000020;28;20498;-82
2021/08/20 04:18:15;;;;;;;11.65;8.77;;;15.10;99.00;;;;;;4969550;28;20088;-82
2021/08/20 04:20:42;;;;;;;9.88;7.78;;;15.20;99.00;;;;;;4998665;28;20058;-83
2021/08/20 04:23:08;;;;;;;14.80;8.95;;;15.20;98.80;;;;;;4987671;28;20034;-83
2021/08/20 04:25:33;;;;;;;16.13;9.43;;;15.20;98.80;;;;;;5019113;28;20389;-83
2021/08/20 04:27:59;;;;;;;12.40;8.25;;;15.10;99.00;;;;;;4983927;28;20050;-82
2021/08/20 04:30:28;;;;;;;12.02;9.55;;;15.10;99.10;;;;;;4979175;28;20068;-82
2021/08/20 04:32:54;;;;;;;14.70;9.93;;;15.20;99.10;;;;;;4988091;28;20038;-82
2021/08/20 04:35:20;;;;;;;13.68;9.60;;;15.00;98.90;;;;;;4987550;28;20444;-83
2021/08/20 04:37:45;;;;;;;13.82;9.73;;;15.10;99.20;;;;;;5017526;28;20085;-82
2021/08/20 04:40:11;;;;;;;19.55;9.73;;;15.00;99.30;;;;;;4988071;28;20026;-83
2021/08/20 04:42:37;;;;;;;13.52;10.68;;;15.00;99.10;;;;;;4987124;28;20033;-82
2021/08/20 04:45:03;;;;;;;11.50;8.82;;;15.10;99.10;;;;;;5001995;28;20108;-82
2021/08/20 04:47:29;;;;;;;13.02;9.52;;;15.10;98.90;;;;;;4985135;28;20128;-83
2021/08/20 04:49:54;;;;;;;15.95;10.13;;;15.20;98.80;;;;;;4971358;28;20121;-81
2021/08/20 04:52:20;;;;;;;10.93;9.80;;;15.10;98.80;;;;;;5002035;28;20140;-83
2021/08/20 04:54:46;;;;;;;19.75;11.95;;;15.10;98.80;;;;;;5003700;28;20164;-81
2021/08/20 04:57:12;;;;;;;12.05;9.05;;;15.10;98.60;;;;;;4984934;28;20375;-84
2021/08/20 04:59:38;;;;;;;12.68;9.20;;;15.10;98.80;;;;;;4984674;28;20031;-81
2021/08/20 05:02:03;;;;;;;15.15;10.27;;;15.10;98.70;;;;;;4989684;28;20383;-83
2021/08/20 05:04:31;;;;;;;13.60;10.70;;;15.10;98.80;;;;;;4970224;28;20040;-84
2021/08/20 05:06:57;;;;;;;15.30;12.82;;;15.00;99.00;;;;;;4993465;28;20034;-84
2021/08/20 05:09:22;;;;;;;12.20;10.43;;;15.00;98.80;;;;;;4990394;28;20052;-83
2021/08/20 05:11:48;;;;;;;15.85;10.93;;;15.00;98.90;;;;;;4998667;28;20026;-83
2021/08/20 05:14:13;;;;;;;13.48;10.48;;;15.00;98.80;;;;;;5022763;28;20034;-83
2021/08/20 05:16:39;;;;;;;12.93;8.20;;;15.10;98.90;;;;;;5009162;28;20576;-83
2021/08/20 05:19:04;;;;;;;13.23;10.10;;;15.10;98.60;;;;;;4987595;28;20081;-82
2021/08/20 05:21:30;;;;;;;15.90;10.20;;;15.10;98.50;;;;;;5006365;28;20056;-84
2021/08/20 05:23:55;;;;;;;14.18;10.45;;;15.10;98.70;;;;;;4990001;28;20034;-83
2021/08/20 05:26:21;;;;;;;11.85;8.82;;;15.20;98.50;;;;;;5006351;28;20083;-81
2021/08/20 05:28:47;;;;;;;11.85;9.10;;;15.20;98.40;;;;;;4987147;28;20100;-82
2021/08/20 05:31:12;;;;;;;14.45;8.93;;;15.30;98.40;;;;;;4990148;28;20482;-83
2021/08/20 05:33:38;;;;;;;14.85;9.85;;;15.30;98.50;;;;;;4986468;28;20509;-82
2021/08/20 05:36:03;;;;;;;10.68;7.60;;;15.30;98.50;;;;;;5005603;28;20037;-83
2021/08/20 05:38:29;;;;;;;13.85;10.50;;;15.40;98.50;;;;;;4972280;28;20489;-83
2021/08/20 05:40:54;;;;;;;11.38;8.57;;;15.40;98.50;;;;;;4988550;28;20034;-82
2021/08/20 05:43:20;;;;;;;11.75;7.93;;;15.40;98.50;;;;;;4977836;28;20200;-83
2021/08/20 05:45:45;;;;;;;11.57;8.85;;;15.40;98.20;;;;;;4991992;28;20026;-83
2021/08/20 05:48:11;;;;;;;14.45;9.30;;;15.50;98.30;;;;;;4990781;28;20029;-83
2021/08/20 05:50:37;;;;;;;15.43;10.30;;;15.50;98.60;;;;;;5005139;28;20022;-83
2021/08/20 05:53:03;;;;;;;12.90;8.25;;;15.50;98.60;;;;;;5002414;28;20038;-83
2021/08/20 05:55:30;;;;;;;17.42;10.82;;;15.60;98.40;;;;;;4986121;28;20037;-83
2021/08/20 05:57:56;;;;;;;16.55;10.60;;;15.60;98.70;;;;;;4988822;28;20050;-83
2021/08/20 06:00:22;;;;;;;10.75;8.38;;;15.60;98.60;;;;;;5004221;28;20069;-80
2021/08/20 06:02:47;;;;;;;12.80;9.57;;;15.70;98.80;;;;;;4989044;28;20026;-82
2021/08/20 06:05:13;;;;;;;12.63;8.77;;;15.80;99.00;;;;;;4987694;28;20034;-83
2021/08/20 06:07:38;;;;;;;15.75;9.07;;;15.80;99.00;;;;;;4985496;28;20038;-83
2021/08/20 06:10:06;;;;;;;12.95;9.15;;;15.90;98.90;;;;;;4984090;28;20045;-83
2021/08/20 06:12:31;;;;;;;16.58;10.23;;;16.00;98.50;;;;;;4998914;28;20120;-82
2021/08/20 06:14:57;;;;;;;18.45;11.20;;;16.00;98.90;;;;;;4987988;28;20156;-82
2021/08/20 06:17:23;;;;;;;13.07;9.32;;;16.00;98.90;;;;;;4999702;28;20027;-82
2021/08/20 06:19:48;;;;;;;16.15;10.07;;;16.00;98.60;;;;;;5001206;28;20064;-83
2021/08/20 06:22:14;;;;;;;16.75;10.40;;;16.00;99.10;;;;;;5016094;28;20041;-82
2021/08/20 06:24:39;;;;;;;11.60;8.77;;;16.00;99.10;;;;;;5013741;28;20046;-82
2021/08/20 06:27:05;;;;;;;15.32;9.35;;;16.00;98.70;;;;;;5015019;28;20421;-81
2021/08/20 06:29:31;;;;;;;15.68;10.85;;;15.90;99.00;;;;;;4999719;28;20586;-83
2021/08/20 06:31:56;;;;;;;15.27;10.38;;;15.90;99.10;;;;;;4972231;28;20041;-82
2021/08/20 06:34:22;;;;;;;18.23;10.52;;;15.90;99.10;;;;;;4990283;28;20422;-83
2021/08/20 06:36:48;;;;;;;24.20;12.93;;;15.90;99.10;;;;;;4997171;28;20426;-82
2021/08/20 06:39:13;;;;;;;15.38;10.35;;;16.00;99.50;;;;;;4988268;28;20056;-82
2021/08/20 06:41:39;;;;;;;16.30;9.38;;;16.00;99.10;;;;;;4986257;28;20040;-83
2021/08/20 06:44:04;;;;;;;13.70;8.23;;;16.10;99.30;;;;;;4987251;28;20045;-80
2021/08/20 06:46:30;;;;;;;15.95;9.80;;;16.30;99.00;;;;;;4983122;28;20113;-82
2021/08/20 06:48:56;;;;;;;21.17;11.77;;;16.40;99.10;;;;;;4979108;28;20048;-82
2021/08/20 06:51:21;;;;;;;13.38;8.93;;;16.40;98.80;;;;;;4998807;28;20026;-82
2021/08/20 06:53:47;;;;;;;15.38;10.25;;;16.60;98.70;;;;;;4964292;28;20046;-83
2021/08/20 06:56:12;;;;;;;17.73;10.30;;;16.50;99.10;;;;;;5000019;28;20037;-83
2021/08/20 06:58:38;;;;;;;15.15;10.27;;;16.60;99.00;;;;;;4996472;28;20073;-83
2021/08/20 07:01:11;;;;;;;18.20;10.92;;;16.70;99.20;;;;;;4893592;28;10000709;-84
2021/08/20 07:03:36;;;;;;;16.92;9.50;;;16.80;98.70;;;;;;4636027;28;10000186;-83
2021/08/20 07:06:02;;;;;;;20.52;10.32;;;16.70;98.10;;;;;;4985674;28;20061;-83
2021/08/20 07:08:27;;;;;;;20.75;14.35;;;16.70;98.80;;;;;;5001350;28;20057;-81
2021/08/20 07:10:54;;;;;;;19.98;11.77;;;16.80;99.10;;;;;;4988052;28;20137;-83
2021/08/20 07:13:20;;;;;;;24.98;14.02;;;16.90;98.80;;;;;;4979611;28;20402;-82
2021/08/20 07:15:46;;;;;;;14.68;10.63;;;17.00;98.80;;;;;;4986781;28;20054;-82
2021/08/20 07:18:11;;;;;;;15.70;10.50;;;17.10;98.90;;;;;;4984608;28;20026;-84
2021/08/20 07:20:37;;;;;;;19.50;11.73;;;17.10;98.30;;;;;;5000395;28;20044;-83
2021/08/20 07:23:02;;;;;;;17.95;10.82;;;17.10;98.80;;;;;;4986327;28;20612;-83
2021/08/20 07:25:28;;;;;;;20.95;13.95;;;17.20;98.50;;;;;;4982090;28;20037;-80
2021/08/20 07:27:53;;;;;;;18.92;12.02;;;17.20;98.80;;;;;;5000511;28;20046;-79
2021/08/20 07:30:19;;;;;;;20.55;11.45;;;17.30;98.70;;;;;;4985711;28;20034;-82
2021/08/20 07:32:45;;;;;;;20.05;11.63;;;17.40;98.50;;;;;;4993967;28;20036;-84
2021/08/20 07:35:11;;;;;;;15.95;11.30;;;17.30;98.60;;;;;;4967320;28;20121;-83
2021/08/20 07:37:37;;;;;;;16.85;11.25;;;17.50;98.60;;;;;;4968509;28;20616;-84
2021/08/20 07:40:04;;;;;;;21.08;12.05;;;17.50;98.60;;;;;;4983762;28;20052;-84
2021/08/20 07:42:29;;;;;;;17.83;11.27;;;17.60;98.70;;;;;;4970720;28;20044;-82
2021/08/20 07:44:55;;;;;;;20.35;12.10;;;17.90;98.50;;;;;;4994858;28;20401;-84
2021/08/20 07:47:21;;;;;;;17.23;11.13;;;18.20;99.40;;;;;;4967175;28;20490;-83
2021/08/20 07:49:46;;;;;;;20.42;11.65;;;18.50;98.80;;;;;;5017101;28;20044;-84
2021/08/20 07:52:12;;;;;;;13.20;9.82;;;18.60;98.80;;;;;;4963958;28;20452;-84
2021/08/20 07:54:37;;;;;;;16.75;9.60;;;18.70;98.30;;;;;;4983046;28;20034;-83
2021/08/20 07:57:03;;;;;;;21.40;11.95;;;18.60;98.00;;;;;;4973328;28;20103;-82
2021/08/20 07:59:29;;;;;;;22.65;12.80;;;18.60;98.10;;;;;;4971406;28;20068;-82
2021/08/20 08:01:54;;;;;;;24.80;13.85;;;18.70;98.10;;;;;;5004073;28;20113;-82
2021/08/20 08:04:20;;;;;;;17.38;10.13;;;18.80;98.10;;;;;;4988498;28;20042;-82
2021/08/20 08:06:45;;;;;;;18.20;11.70;;;18.90;97.80;;;;;;4968978;28;20034;-82
2021/08/20 08:09:11;;;;;;;17.48;12.40;;;18.60;97.40;;;;;;4984794;28;20031;-82
2021/08/20 08:11:36;;;;;;;19.35;11.60;;;18.80;98.50;;;;;;5016682;28;20113;-82
2021/08/20 08:14:08;;;;;;;23.55;14.73;;;19.00;98.10;;;;;;4983059;28;20044;-83
2021/08/20 08:16:35;;;;;;;23.00;12.63;;;18.80;98.10;;;;;;5002220;28;20026;-82
2021/08/20 08:19:01;;;;;;;20.75;14.27;;;19.00;97.70;;;;;;4999917;28;20092;-82
2021/08/20 08:21:27;;;;;;;20.25;12.60;;;19.30;97.90;;;;;;4985076;28;20441;-83
2021/08/20 08:23:52;;;;;;;23.52;11.65;;;19.50;97.00;;;;;;4979213;28;20041;-83
2021/08/20 08:26:18;;;;;;;23.58;13.55;;;19.20;96.90;;;;;;5003557;28;20034;-82
2021/08/20 08:28:43;;;;;;;22.25;12.52;;;19.10;97.60;;;;;;5015642;28;20041;-82
2021/08/20 08:31:09;;;;;;;20.55;12.57;;;19.50;97.50;;;;;;4967800;28;20177;-83
2021/08/20 08:33:34;;;;;;;20.02;12.70;;;19.50;97.00;;;;;;4995648;28;20046;-81
2021/08/20 08:36:00;;;;;;;19.95;12.35;;;19.90;97.00;;;;;;4980254;28;20037;-81
2021/08/20 08:38:26;;;;;;;18.35;13.48;;;19.80;96.60;;;;;;5004010;28;20432;-82
2021/08/20 08:40:51;;;;;;;20.13;12.35;;;20.30;97.80;;;;;;4986868;28;20069;-82
2021/08/20 08:43:17;;;;;;;20.02;12.43;;;20.70;97.70;;;;;;4968477;28;20034;-83
2021/08/20 08:45:43;;;;;;;21.08;13.45;;;21.00;97.50;;;;;;4983632;28;20035;-83
2021/08/20 08:48:13;;;;;;;18.10;11.95;;;20.60;95.90;;;;;;4977900;28;20037;-82
2021/08/20 08:50:39;;;;;;;16.35;11.65;;;20.60;96.90;;;;;;4985972;28;20053;-83
2021/08/20 08:53:05;;;;;;;17.48;11.95;;;20.90;96.90;;;;;;4969034;28;20564;-82
2021/08/20 08:55:30;;;;;;;17.63;11.27;;;20.60;95.80;;;;;;5002009;28;20084;-82
2021/08/20 08:57:56;;;;;;;20.23;13.13;;;20.90;96.60;;;;;;4987350;28;20430;-83
2021/08/20 09:00:33;;;;;;;19.60;11.18;;;21.10;96.20;;;;;;4987262;28;20034;-84
2021/08/20 09:02:58;;;;;;;15.40;11.05;;;21.20;96.30;;;;;;4986152;28;20425;-83
2021/08/20 09:05:24;;;;;;;15.60;10.30;;;21.50;96.40;;;;;;4977057;28;20121;-82
2021/08/20 09:07:54;;;;;;;16.38;10.18;;;21.50;95.10;;;;;;5003351;28;20540;-81
2021/08/20 09:10:23;;;;;;;13.98;9.63;;;21.80;95.40;;;;;;4977236;28;21082;-83
2021/08/20 09:12:59;;;;;;;18.55;10.52;;;22.00;95.20;;;;;;5003889;28;20030;-82
2021/08/20 09:15:26;;;;;;;13.93;9.95;;;21.90;95.10;;;;;;4985751;28;20564;-82
2021/08/20 09:17:56;;;;;;;14.90;9.52;;;22.10;94.70;;;;;;5014173;28;20038;-83
2021/08/20 09:20:28;;;;;;;12.43;7.60;;;22.40;94.40;;;;;;4987644;28;20113;-83
2021/08/20 09:22:55;;;;;;;12.13;7.88;;;22.50;95.20;;;;;;5008775;28;20029;-80
2021/08/20 09:25:44;;;;;;;9.55;6.95;;;22.50;94.30;;;;;;5011582;28;20261;-82
2021/08/20 09:28:19;;;;;;;11.80;7.82;;;22.50;93.40;;;;;;5012414;28;20038;-80
2021/08/20 09:30:54;;;;;;;9.95;7.68;;;22.60;93.40;;;;;;5004733;28;20080;-80
2021/08/20 09:33:21;;;;;;;10.00;6.63;;;22.90;93.20;;;;;;5030155;28;20018;-81
2021/08/20 09:35:54;;;;;;;10.18;6.70;;;23.10;92.80;;;;;;4986968;28;20049;-82
2021/08/20 09:38:19;;;;;;;8.65;5.80;;;23.10;93.20;;;;;;5020174;28;20038;-83
2021/08/20 09:40:53;;;;;;;9.85;5.93;;;23.50;93.00;;;;;;5017283;28;20053;-84
2021/08/20 09:43:25;;;;;;;12.30;5.70;;;23.80;92.60;;;;;;5019013;28;20136;-84
2021/08/20 09:46:04;;;;;;;11.00;6.75;;;24.00;92.00;;;;;;5023121;28;20105;-83
2021/08/20 09:48:49;;;;;;;7.70;5.28;;;24.00;92.10;;;;;;5021899;28;20040;-82
2021/08/20 09:51:40;;;;;;;8.57;4.82;;;24.20;92.50;;;;;;5031173;28;20035;-85
2021/08/20 09:54:16;;;;;;;6.55;5.32;;;24.50;92.20;;;;;;5010572;28;20042;-84
2021/08/20 09:56:45;;;;;;;7.65;6.10;;;24.80;91.90;;;;;;4303959;28;10000927;-84
2021/08/20 09:59:11;;;;;;;9.57;4.25;;;25.10;91.20;;;;;;5002817;28;20049;-84
2021/08/20 10:01:41;;;;;;;7.88;4.55;;;25.30;90.10;;;;;;4983523;28;20038;-83
2021/08/20 10:04:08;;;;;;;3.90;3.50;;;25.30;90.50;;;;;;4982074;28;20040;-83
2021/08/20 10:06:36;;;;;;;5.93;3.83;;;25.50;87.80;;;;;;4988741;28;20130;-84
2021/08/20 10:09:10;;;;;;;6.95;4.10;;;25.50;89.70;;;;;;4970859;28;20069;-84
2021/08/20 10:11:52;;;;;;;6.32;3.70;;;25.70;91.10;;;;;;4999814;28;20445;-83
2021/08/20 10:14:17;;;;;;;5.10;3.13;;;26.00;91.20;;;;;;5005078;28;20489;-85
2021/08/20 10:16:43;;;;;;;5.55;3.40;;;25.90;86.40;;;;;;4977265;28;20041;-84
2021/08/20 10:19:09;;;;;;;5.85;2.90;;;25.60;85.10;;;;;;4972979;28;20045;-83
2021/08/20 10:21:37;;;;;;;3.58;2.60;;;25.80;90.30;;;;;;4979306;28;20494;-82
2021/08/20 10:24:04;;;;;;;5.00;2.67;;;26.20;89.60;;;;;;4983073;28;20132;-82
2021/08/20 10:26:30;;;;;;;2.90;2.60;;;26.20;89.30;;;;;;4987075;28;20390;-84
2021/08/20 10:28:55;;;;;;;3.85;2.67;;;26.10;89.60;;;;;;5002299;28;20041;-83
2021/08/20 10:31:21;;;;;;;4.75;2.67;;;26.00;86.40;;;;;;4988599;28;20085;-83
2021/08/20 10:33:47;;;;;;;4.10;2.78;;;25.80;86.80;;;;;;4974458;28;20030;-83
2021/08/20 10:36:12;;;;;;;3.83;2.80;;;25.80;87.40;;;;;;4972299;28;20405;-83
2021/08/20 10:38:43;;;;;;;5.22;2.85;;;26.00;88.60;;;;;;4988597;28;20038;-82
2021/08/20 10:41:13;;;;;;;3.20;2.78;;;26.10;88.40;;;;;;4979510;28;20056;-83
2021/08/20 10:43:58;;;;;;;4.20;2.70;;;26.20;88.40;;;;;;5019093;28;20030;-82
2021/08/20 10:46:33;;;;;;;4.07;2.70;;;26.10;88.50;;;;;;5004092;28;20080;-82
2021/08/20 10:49:10;;;;;;;6.93;2.67;;;26.40;87.70;;;;;;4995499;28;20049;-81
2021/08/20 10:51:52;;;;;;;2.70;1.92;;;26.50;87.20;;;;;;5003081;28;20025;-81
2021/08/20 10:54:21;;;;;;;3.88;2.67;;;26.30;85.40;;;;;;5000508;28;20041;-83
2021/08/20 10:56:48;;;;;;;3.42;2.20;;;26.10;84.00;;;;;;4981872;28;20031;-83
2021/08/20 10:59:43;;;;;;;3.53;2.22;;;25.90;84.00;;;;;;5019512;28;20045;-82
2021/08/20 11:02:24;;;;;;;3.40;2.03;;;25.60;85.80;;;;;;5006869;28;20034;-82
2021/08/20 11:05:01;;;;;;;3.08;2.20;;;25.90;86.10;;;;;;5020384;28;20482;-82
2021/08/20 11:07:40;;;;;;;1.90;1.70;;;26.10;86.70;;;;;;5007179;28;20393;-82
2021/08/20 11:10:08;;;;;;;2.22;1.70;;;26.20;86.80;;;;;;5003815;28;20042;-81
2021/08/20 11:12:47;;;;;;;3.13;1.50;;;25.80;84.30;;;;;;5009392;28;20420;-82
2021/08/20 11:15:33;;;;;;;0.90;0.90;;;25.70;83.60;;;;;;4998789;28;20030;-82
2021/08/20 11:17:59;;;;;;;;;;;26.00;84.90;;;;;;4998282;28;20458;-82
2021/08/20 11:20:33;;;;;;;;;;;25.80;82.10;;;;;;5003315;28;20012;-82
2021/08/20 11:23:14;;;;;;;3.22;0.93;;;26.40;84.90;;;;;;5000679;28;20288;-82
2021/08/20 11:25:46;;;;;;;1.23;0.90;;;26.80;86.50;;;;;;5000183;28;20057;-82
2021/08/20 11:28:26;;;;;;;0.95;0.88;;;26.90;83.60;;;;;;5001671;28;20070;-81
2021/08/20 11:31:08;;;;;;;1.17;0.65;;;27.40;84.00;;;;;;5003332;28;20060;-81
2021/08/20 11:33:37;;;;;;;1.25;0.88;;;27.40;83.40;;;;;;5020366;28;20116;-80
2021/08/20 11:36:19;;;;;;;1.85;0.85;;;27.80;83.90;;;;;;5001043;28;20027;-82
2021/08/20 11:38:46;;;;;;;0.70;0.65;;;28.00;82.60;;;;;;5003235;28;20031;-82
2021/08/20 11:41:22;;;;;;;0.95;0.90;;;27.60;81.10;;;;;;5000823;28;20472;-82
2021/08/20 11:43:53;;;;;;;0.70;0.70;;;27.60;82.80;;;;;;5004543;28;20489;-82
2021/08/20 11:46:19;;;;;;;0.60;0.60;;;27.80;84.70;;;;;;5002975;28;20510;-82
2021/08/20 11:48:46;;;;;;;1.30;0.88;;;27.50;81.20;;;;;;5003394;28;20045;-82
2021/08/20 11:51:12;;;;;;;2.30;1.35;;;28.00;83.60;;;;;;4968400;28;20157;-82
2021/08/20 11:53:38;;;;;;;0.82;0.80;;;28.30;82.20;;;;;;4983706;28;20030;-81
2021/08/20 11:56:14;;;;;;;4.45;1.10;;;28.40;81.00;;;;;;4984891;28;20038;-81
2021/08/20 11:58:40;;;;;;;1.95;1.08;;;28.30;81.10;;;;;;4979399;28;20117;-81
2021/08/20 12:01:06;;;;;;;1.50;1.38;;;27.90;81.10;;;;;;5003229;28;20033;-81
2021/08/20 12:03:35;;;;;;;1.85;1.35;;;27.80;82.60;;;;;;4986867;28;20034;-82
2021/08/20 12:06:07;;;;;;;2.08;1.20;;;27.60;82.50;;;;;;4986475;28;20064;-82
2021/08/20 12:08:33;;;;;;;1.27;1.17;;;27.60;82.80;;;;;;4986695;28;20512;-82
2021/08/20 12:10:58;;;;;;;2.88;1.42;;;27.80;82.30;;;;;;4978425;28;20030;-81
2021/08/20 12:13:24;;;;;;;2.65;1.88;;;27.80;81.90;;;;;;4973637;28;20038;-81
2021/08/20 12:15:49;;;;;;;3.58;2.10;;;28.00;80.90;;;;;;4978737;28;20034;-82
2021/08/20 12:18:27;;;;;;;2.05;1.85;;;28.10;80.80;;;;;;5018087;28;20040;-81
2021/08/20 12:20:54;;;;;;;3.20;2.33;;;28.00;80.30;;;;;;5011965;28;20037;-82
2021/08/20 12:23:20;;;;;;;2.15;1.70;;;28.20;81.00;;;;;;5001186;28;20390;-83
2021/08/20 12:25:46;;;;;;;2.58;2.10;;;28.10;77.30;;;;;;4983299;28;20345;-82
2021/08/20 12:28:15;;;;;;;2.67;1.88;;;27.90;78.80;;;;;;4974295;28;20060;-82
2021/08/20 12:30:41;;;;;;;4.97;2.00;;;28.40;80.10;;;;;;5000541;28;20128;-82
2021/08/20 12:33:07;;;;;;;3.65;1.92;;;29.00;79.70;;;;;;4978967;28;20048;-82
2021/08/20 12:35:33;;;;;;;3.42;2.13;;;29.10;78.50;;;;;;4987124;28;20038;-81
2021/08/20 12:38:11;;;;;;;3.67;2.35;;;29.00;77.90;;;;;;4973192;28;20077;-81
2021/08/20 12:40:44;;;;;;;4.55;2.60;;;29.00;76.50;;;;;;4981146;28;20084;-82